Terminal Aerodrome Forecast
Issued by NWS

Home | Current Version | Previous Version | Graphics & Text | Print | Product List | Glossary On
Versions: 1 2 3 4 5 6 7 8 9 10 11 12 13 14 15 16 17 18 19
007
FTUS43 KGRB 241505 AAB
TAFATW
TAF AMD
KATW 241505Z 2415/2512 21008KT P6SM BKN005 OVC025
     FM241630 23010KT P6SM SCT015 BKN025
     FM241800 24010G20KT P6SM SCT030
     FM242100 26012G20KT P6SM SCT100
     FM250200 28008KT P6SM FEW250=

USA.gov is the U.S. government's official web portal to all federal, state and local government web resources and services.